sensor_id;sensor_type;location;lat;lon;timestamp;pressure;altitude;pressure_sealevel;temperature;humidity
61086;BME280;46967;48.876;2.136;2024-01-06T00:00:50;100591.78;;;31.88;15.62
61086;BME280;46967;48.876;2.136;2024-01-06T00:03:15;100588.97;;;31.96;15.62
61086;BME280;46967;48.876;2.136;2024-01-06T00:05:40;100595.41;;;32.02;15.58
61086;BME280;46967;48.876;2.136;2024-01-06T00:08:06;100597.00;;;31.96;15.57
61086;BME280;46967;48.876;2.136;2024-01-06T00:10:31;100604.50;;;32.01;15.69
61086;BME280;46967;48.876;2.136;2024-01-06T00:12:57;100597.81;;;32.12;15.36
61086;BME280;46967;48.876;2.136;2024-01-06T00:15:22;100604.38;;;32.09;15.01
61086;BME280;46967;48.876;2.136;2024-01-06T00:17:48;100601.38;;;32.19;14.96
61086;BME280;46967;48.876;2.136;2024-01-06T00:20:13;100612.28;;;32.18;14.91
61086;BME280;46967;48.876;2.136;2024-01-06T00:22:39;100616.00;;;32.17;15.12
61086;BME280;46967;48.876;2.136;2024-01-06T00:25:04;100614.84;;;32.26;15.00
61086;BME280;46967;48.876;2.136;2024-01-06T00:27:30;100612.16;;;32.04;15.07
61086;BME280;46967;48.876;2.136;2024-01-06T00:29:55;100615.75;;;32.11;14.92
61086;BME280;46967;48.876;2.136;2024-01-06T00:32:23;100615.84;;;32.03;14.93
61086;BME280;46967;48.876;2.136;2024-01-06T00:34:48;100615.47;;;32.06;15.06
61086;BME280;46967;48.876;2.136;2024-01-06T00:37:14;100618.44;;;32.11;14.81
61086;BME280;46967;48.876;2.136;2024-01-06T00:39:39;100613.91;;;32.12;14.89
61086;BME280;46967;48.876;2.136;2024-01-06T00:42:05;100614.75;;;31.97;14.71
61086;BME280;46967;48.876;2.136;2024-01-06T00:44:30;100621.66;;;32.07;14.67
61086;BME280;46967;48.876;2.136;2024-01-06T00:46:55;100611.38;;;31.89;14.45
61086;BME280;46967;48.876;2.136;2024-01-06T00:49:21;100610.00;;;31.93;14.57
61086;BME280;46967;48.876;2.136;2024-01-06T00:51:46;100621.47;;;31.87;14.48
61086;BME280;46967;48.876;2.136;2024-01-06T00:54:11;100630.28;;;31.81;14.83
61086;BME280;46967;48.876;2.136;2024-01-06T00:56:37;100620.06;;;31.69;14.83
61086;BME280;46967;48.876;2.136;2024-01-06T00:59:02;100627.44;;;31.67;15.08
61086;BME280;46967;48.876;2.136;2024-01-06T01:01:28;100629.22;;;31.60;14.93
61086;BME280;46967;48.876;2.136;2024-01-06T01:03:53;100632.16;;;31.65;15.13
61086;BME280;46967;48.876;2.136;2024-01-06T01:06:18;100628.97;;;31.76;14.82
61086;BME280;46967;48.876;2.136;2024-01-06T01:08:44;100642.84;;;31.80;14.76
61086;BME280;46967;48.876;2.136;2024-01-06T01:11:10;100641.81;;;31.81;14.38
61086;BME280;46967;48.876;2.136;2024-01-06T01:13:35;100639.63;;;31.70;14.40
61086;BME280;46967;48.876;2.136;2024-01-06T01:16:00;100645.44;;;31.73;14.99
61086;BME280;46967;48.876;2.136;2024-01-06T01:18:26;100646.19;;;31.82;14.98
61086;BME280;46967;48.876;2.136;2024-01-06T01:20:51;100648.69;;;31.84;14.71
61086;BME280;46967;48.876;2.136;2024-01-06T01:23:16;100646.25;;;31.89;15.01
61086;BME280;46967;48.876;2.136;2024-01-06T01:25:42;100645.44;;;31.88;14.68
61086;BME280;46967;48.876;2.136;2024-01-06T01:28:07;100655.31;;;31.88;15.08
61086;BME280;46967;48.876;2.136;2024-01-06T01:30:32;100657.22;;;31.94;14.84
61086;BME280;46967;48.876;2.136;2024-01-06T01:32:58;100656.59;;;31.92;14.86
61086;BME280;46967;48.876;2.136;2024-01-06T01:35:23;100651.22;;;31.92;14.97
61086;BME280;46967;48.876;2.136;2024-01-06T01:37:49;100655.00;;;31.61;14.98
61086;BME280;46967;48.876;2.136;2024-01-06T01:40:14;100649.25;;;31.64;15.29
61086;BME280;46967;48.876;2.136;2024-01-06T01:42:42;100661.59;;;31.58;15.29
61086;BME280;46967;48.876;2.136;2024-01-06T01:45:08;100663.97;;;31.68;15.31
61086;BME280;46967;48.876;2.136;2024-01-06T01:47:33;100654.59;;;31.79;14.97
61086;BME280;46967;48.876;2.136;2024-01-06T01:49:59;100660.41;;;31.83;15.18
61086;BME280;46967;48.876;2.136;2024-01-06T01:52:25;100663.72;;;31.85;14.83
61086;BME280;46967;48.876;2.136;2024-01-06T01:54:52;100662.66;;;31.79;15.13
61086;BME280;46967;48.876;2.136;2024-01-06T01:57:17;100670.97;;;31.84;14.86
61086;BME280;46967;48.876;2.136;2024-01-06T01:59:43;100670.31;;;31.82;14.60
61086;BME280;46967;48.876;2.136;2024-01-06T02:02:09;100676.00;;;31.72;15.00
61086;BME280;46967;48.876;2.136;2024-01-06T02:04:34;100683.84;;;31.74;14.78
61086;BME280;46967;48.876;2.136;2024-01-06T02:07:00;100691.91;;;31.74;14.92
61086;BME280;46967;48.876;2.136;2024-01-06T02:09:25;100698.53;;;31.78;14.50
61086;BME280;46967;48.876;2.136;2024-01-06T02:11:54;100698.78;;;31.83;14.87
61086;BME280;46967;48.876;2.136;2024-01-06T02:14:19;100687.13;;;31.91;14.60
61086;BME280;46967;48.876;2.136;2024-01-06T02:16:45;100690.53;;;32.00;14.41
61086;BME280;46967;48.876;2.136;2024-01-06T02:19:12;100706.16;;;32.11;14.33
61086;BME280;46967;48.876;2.136;2024-01-06T02:21:42;100698.19;;;32.18;14.44
61086;BME280;46967;48.876;2.136;2024-01-06T02:24:08;100693.44;;;32.20;14.19
61086;BME280;46967;48.876;2.136;2024-01-06T02:26:33;100701.13;;;32.23;14.25
61086;BME280;46967;48.876;2.136;2024-01-06T02:28:58;100703.19;;;32.42;13.80
61086;BME280;46967;48.876;2.136;2024-01-06T02:31:24;100707.13;;;32.46;13.94
61086;BME280;46967;48.876;2.136;2024-01-06T02:33:49;100705.16;;;32.55;13.69
61086;BME280;46967;48.876;2.136;2024-01-06T02:36:14;100703.38;;;32.41;14.14
61086;BME280;46967;48.876;2.136;2024-01-06T02:38:40;100699.22;;;32.38;14.14
61086;BME280;46967;48.876;2.136;2024-01-06T02:41:05;100702.53;;;32.40;13.97
61086;BME280;46967;48.876;2.136;2024-01-06T02:43:30;100709.47;;;32.56;13.81
61086;BME280;46967;48.876;2.136;2024-01-06T02:45:56;100712.06;;;32.43;13.77
61086;BME280;46967;48.876;2.136;2024-01-06T02:48:21;100722.34;;;32.39;13.85
61086;BME280;46967;48.876;2.136;2024-01-06T02:50:46;100715.81;;;32.27;14.10
61086;BME280;46967;48.876;2.136;2024-01-06T02:53:11;100712.44;;;32.40;14.13
61086;BME280;46967;48.876;2.136;2024-01-06T02:55:38;100718.81;;;32.60;13.54
61086;BME280;46967;48.876;2.136;2024-01-06T02:58:03;100722.53;;;32.59;13.54
61086;BME280;46967;48.876;2.136;2024-01-06T03:00:29;100726.19;;;32.73;13.81
61086;BME280;46967;48.876;2.136;2024-01-06T03:02:54;100726.38;;;32.72;13.48
61086;BME280;46967;48.876;2.136;2024-01-06T03:05:19;100737.47;;;32.83;13.85
61086;BME280;46967;48.876;2.136;2024-01-06T03:07:45;100734.03;;;32.96;13.63
61086;BME280;46967;48.876;2.136;2024-01-06T03:10:10;100738.72;;;32.88;14.02
61086;BME280;46967;48.876;2.136;2024-01-06T03:12:35;100740.63;;;32.94;13.89
61086;BME280;46967;48.876;2.136;2024-01-06T03:15:01;100738.19;;;32.99;13.99
61086;BME280;46967;48.876;2.136;2024-01-06T03:17:26;100744.41;;;32.78;14.38
61086;BME280;46967;48.876;2.136;2024-01-06T03:19:54;100752.25;;;32.58;14.55
61086;BME280;46967;48.876;2.136;2024-01-06T03:22:19;100754.25;;;32.49;14.40
61086;BME280;46967;48.876;2.136;2024-01-06T03:24:44;100752.19;;;32.51;14.41
61086;BME280;46967;48.876;2.136;2024-01-06T03:27:10;100747.78;;;32.43;14.90
61086;BME280;46967;48.876;2.136;2024-01-06T03:29:35;100744.53;;;32.48;14.60
61086;BME280;46967;48.876;2.136;2024-01-06T03:32:00;100746.06;;;32.57;14.76
61086;BME280;46967;48.876;2.136;2024-01-06T03:34:26;100752.72;;;32.83;14.57
61086;BME280;46967;48.876;2.136;2024-01-06T03:36:51;100757.13;;;32.91;14.44
61086;BME280;46967;48.876;2.136;2024-01-06T03:39:16;100758.47;;;33.01;14.77
61086;BME280;46967;48.876;2.136;2024-01-06T03:41:42;100756.97;;;33.20;14.37
61086;BME280;46967;48.876;2.136;2024-01-06T03:44:07;100756.38;;;33.53;13.99
61086;BME280;46967;48.876;2.136;2024-01-06T03:46:34;100762.63;;;33.67;13.90
61086;BME280;46967;48.876;2.136;2024-01-06T03:49:00;100762.78;;;33.59;14.21
61086;BME280;46967;48.876;2.136;2024-01-06T03:51:25;100765.31;;;33.67;14.18
61086;BME280;46967;48.876;2.136;2024-01-06T03:53:51;100768.44;;;33.64;14.38
61086;BME280;46967;48.876;2.136;2024-01-06T03:56:16;100763.09;;;33.71;14.05
61086;BME280;46967;48.876;2.136;2024-01-06T03:58:41;100765.25;;;33.54;14.28
61086;BME280;46967;48.876;2.136;2024-01-06T04:01:07;100762.53;;;33.47;14.48
61086;BME280;46967;48.876;2.136;2024-01-06T04:03:32;100767.53;;;33.50;14.42
61086;BME280;46967;48.876;2.136;2024-01-06T04:05:57;100766.00;;;33.41;14.38
61086;BME280;46967;48.876;2.136;2024-01-06T04:08:22;100768.31;;;33.44;14.43
61086;BME280;46967;48.876;2.136;2024-01-06T04:10:48;100773.03;;;33.70;14.41
61086;BME280;46967;48.876;2.136;2024-01-06T04:13:15;100762.75;;;33.87;14.26
61086;BME280;46967;48.876;2.136;2024-01-06T04:15:40;100769.59;;;33.83;14.26
61086;BME280;46967;48.876;2.136;2024-01-06T04:18:06;100767.72;;;33.84;14.07
61086;BME280;46967;48.876;2.136;2024-01-06T04:20:32;100768.16;;;33.94;14.25
61086;BME280;46967;48.876;2.136;2024-01-06T04:22:57;100776.81;;;33.83;14.23
61086;BME280;46967;48.876;2.136;2024-01-06T04:25:23;100778.47;;;33.49;14.41
61086;BME280;46967;48.876;2.136;2024-01-06T04:27:48;100781.38;;;33.19;14.92
61086;BME280;46967;48.876;2.136;2024-01-06T04:30:15;100786.72;;;32.32;15.47
61086;BME280;46967;48.876;2.136;2024-01-06T04:32:41;100786.69;;;31.96;16.16
61086;BME280;46967;48.876;2.136;2024-01-06T04:35:06;100791.00;;;31.67;16.23
61086;BME280;46967;48.876;2.136;2024-01-06T04:37:32;100789.91;;;31.76;16.26
61086;BME280;46967;48.876;2.136;2024-01-06T04:39:57;100788.28;;;30.22;17.57
61086;BME280;46967;48.876;2.136;2024-01-06T04:42:22;100795.19;;;31.55;16.53
61086;BME280;46967;48.876;2.136;2024-01-06T04:44:49;100785.03;;;31.42;16.61
61086;BME280;46967;48.876;2.136;2024-01-06T04:47:14;100793.72;;;31.82;16.31
61086;BME280;46967;48.876;2.136;2024-01-06T04:49:39;100799.91;;;31.68;16.47
61086;BME280;46967;48.876;2.136;2024-01-06T04:52:05;100804.06;;;31.85;16.33
61086;BME280;46967;48.876;2.136;2024-01-06T04:54:30;100798.94;;;32.05;15.98
61086;BME280;46967;48.876;2.136;2024-01-06T04:56:58;100808.94;;;31.82;16.15
61086;BME280;46967;48.876;2.136;2024-01-06T04:59:24;100812.75;;;31.87;16.22
61086;BME280;46967;48.876;2.136;2024-01-06T05:01:50;100812.16;;;32.37;16.01
61086;BME280;46967;48.876;2.136;2024-01-06T05:04:16;100819.00;;;32.39;15.83
61086;BME280;46967;48.876;2.136;2024-01-06T05:06:42;100813.44;;;32.62;15.80
61086;BME280;46967;48.876;2.136;2024-01-06T05:09:07;100817.66;;;32.86;15.28
61086;BME280;46967;48.876;2.136;2024-01-06T05:11:32;100820.66;;;32.98;15.59
61086;BME280;46967;48.876;2.136;2024-01-06T05:13:58;100817.81;;;33.07;15.20
61086;BME280;46967;48.876;2.136;2024-01-06T05:16:23;100822.44;;;33.13;15.18
61086;BME280;46967;48.876;2.136;2024-01-06T05:18:48;100816.94;;;32.99;15.27
61086;BME280;46967;48.876;2.136;2024-01-06T05:21:14;100825.84;;;33.00;15.47
61086;BME280;46967;48.876;2.136;2024-01-06T05:23:39;100829.69;;;33.12;15.38
61086;BME280;46967;48.876;2.136;2024-01-06T05:26:04;100825.66;;;33.23;15.06
61086;BME280;46967;48.876;2.136;2024-01-06T05:28:30;100831.44;;;33.20;15.12
61086;BME280;46967;48.876;2.136;2024-01-06T05:30:55;100831.28;;;33.28;15.01
61086;BME280;46967;48.876;2.136;2024-01-06T05:33:21;100837.59;;;33.42;15.02
61086;BME280;46967;48.876;2.136;2024-01-06T05:35:46;100833.44;;;33.39;14.73
61086;BME280;46967;48.876;2.136;2024-01-06T05:38:11;100834.22;;;33.33;14.91
61086;BME280;46967;48.876;2.136;2024-01-06T05:40:37;100840.50;;;33.19;15.05
61086;BME280;46967;48.876;2.136;2024-01-06T05:43:02;100839.00;;;33.16;14.90
61086;BME280;46967;48.876;2.136;2024-01-06T05:45:28;100837.81;;;33.19;14.95
61086;BME280;46967;48.876;2.136;2024-01-06T05:47:53;100841.19;;;33.06;15.21
61086;BME280;46967;48.876;2.136;2024-01-06T05:50:18;100845.66;;;32.99;15.24
61086;BME280;46967;48.876;2.136;2024-01-06T05:52:44;100839.81;;;32.52;15.66
61086;BME280;46967;48.876;2.136;2024-01-06T05:55:12;100845.69;;;32.26;15.42
61086;BME280;46967;48.876;2.136;2024-01-06T05:57:37;100843.44;;;32.44;15.75
61086;BME280;46967;48.876;2.136;2024-01-06T06:00:03;100844.09;;;31.72;16.43
61086;BME280;46967;48.876;2.136;2024-01-06T06:02:29;100849.84;;;31.99;15.85
61086;BME280;46967;48.876;2.136;2024-01-06T06:04:55;100851.41;;;31.63;16.13
61086;BME280;46967;48.876;2.136;2024-01-06T06:07:20;100857.75;;;32.15;15.67
61086;BME280;46967;48.876;2.136;2024-01-06T06:09:45;100859.19;;;32.32;15.91
61086;BME280;46967;48.876;2.136;2024-01-06T06:12:13;100870.19;;;32.38;15.39
61086;BME280;46967;48.876;2.136;2024-01-06T06:14:38;100871.09;;;32.45;15.31
61086;BME280;46967;48.876;2.136;2024-01-06T06:17:04;100879.06;;;32.38;15.47
61086;BME280;46967;48.876;2.136;2024-01-06T06:19:29;100879.06;;;32.38;15.21
61086;BME280;46967;48.876;2.136;2024-01-06T06:21:54;100889.38;;;32.35;15.45
61086;BME280;46967;48.876;2.136;2024-01-06T06:24:20;100893.91;;;32.34;15.53
61086;BME280;46967;48.876;2.136;2024-01-06T06:26:45;100884.69;;;32.58;15.09
61086;BME280;46967;48.876;2.136;2024-01-06T06:29:10;100892.34;;;32.76;15.29
61086;BME280;46967;48.876;2.136;2024-01-06T06:31:36;100899.53;;;32.39;15.72
61086;BME280;46967;48.876;2.136;2024-01-06T06:34:01;100897.09;;;32.59;15.55
61086;BME280;46967;48.876;2.136;2024-01-06T06:36:26;100904.13;;;32.75;15.35
61086;BME280;46967;48.876;2.136;2024-01-06T06:38:52;100904.53;;;32.72;15.02
61086;BME280;46967;48.876;2.136;2024-01-06T06:41:18;100906.53;;;32.70;15.30
61086;BME280;46967;48.876;2.136;2024-01-06T06:43:45;100909.78;;;32.65;15.24
61086;BME280;46967;48.876;2.136;2024-01-06T06:46:10;100920.81;;;32.56;15.35
61086;BME280;46967;48.876;2.136;2024-01-06T06:48:35;100922.13;;;32.30;15.52
61086;BME280;46967;48.876;2.136;2024-01-06T06:51:01;100932.56;;;32.55;15.23
61086;BME280;46967;48.876;2.136;2024-01-06T06:53:27;100930.34;;;32.73;15.19
61086;BME280;46967;48.876;2.136;2024-01-06T06:55:52;100941.84;;;32.67;15.10
61086;BME280;46967;48.876;2.136;2024-01-06T06:58:18;100934.63;;;32.38;15.42
61086;BME280;46967;48.876;2.136;2024-01-06T07:00:43;100938.47;;;32.05;15.68
61086;BME280;46967;48.876;2.136;2024-01-06T07:03:09;100940.97;;;31.92;15.87
61086;BME280;46967;48.876;2.136;2024-01-06T07:05:34;100938.53;;;31.44;16.29
61086;BME280;46967;48.876;2.136;2024-01-06T07:08:00;100948.78;;;30.38;17.55
61086;BME280;46967;48.876;2.136;2024-01-06T07:10:25;100951.53;;;30.93;16.75
61086;BME280;46967;48.876;2.136;2024-01-06T07:12:51;100958.50;;;30.79;16.94
61086;BME280;46967;48.876;2.136;2024-01-06T07:15:16;100959.59;;;31.24;16.29
61086;BME280;46967;48.876;2.136;2024-01-06T07:17:41;100962.63;;;30.58;17.24
61086;BME280;46967;48.876;2.136;2024-01-06T07:20:07;100967.56;;;31.32;16.54
61086;BME280;46967;48.876;2.136;2024-01-06T07:22:33;100973.41;;;30.73;16.80
61086;BME280;46967;48.876;2.136;2024-01-06T07:25:00;100981.06;;;30.84;16.81
61086;BME280;46967;48.876;2.136;2024-01-06T07:27:25;100974.25;;;30.74;17.14
61086;BME280;46967;48.876;2.136;2024-01-06T07:29:50;100980.50;;;30.58;16.97
61086;BME280;46967;48.876;2.136;2024-01-06T07:32:16;100989.47;;;31.44;16.45
61086;BME280;46967;48.876;2.136;2024-01-06T07:34:41;100983.34;;;30.64;16.91
61086;BME280;46967;48.876;2.136;2024-01-06T07:37:08;100991.28;;;30.08;17.63
61086;BME280;46967;48.876;2.136;2024-01-06T07:39:33;100987.72;;;31.28;16.29
61086;BME280;46967;48.876;2.136;2024-01-06T07:41:59;101003.34;;;30.12;17.44
61086;BME280;46967;48.876;2.136;2024-01-06T07:44:24;101006.59;;;30.64;16.94
61086;BME280;46967;48.876;2.136;2024-01-06T07:46:50;100999.72;;;31.40;16.20
61086;BME280;46967;48.876;2.136;2024-01-06T07:49:16;101009.81;;;31.30;16.24
61086;BME280;46967;48.876;2.136;2024-01-06T07:51:41;101000.59;;;31.01;16.35
61086;BME280;46967;48.876;2.136;2024-01-06T07:54:07;101004.34;;;31.55;16.23
61086;BME280;46967;48.876;2.136;2024-01-06T07:56:34;101010.03;;;31.20;16.17
61086;BME280;46967;48.876;2.136;2024-01-06T07:58:59;101014.00;;;31.01;16.42
61086;BME280;46967;48.876;2.136;2024-01-06T08:01:25;101003.84;;;31.74;15.67
61086;BME280;46967;48.876;2.136;2024-01-06T08:03:50;101013.47;;;31.84;15.74
61086;BME280;46967;48.876;2.136;2024-01-06T08:06:15;101012.38;;;31.47;15.87
61086;BME280;46967;48.876;2.136;2024-01-06T08:08:41;101022.00;;;31.87;15.32
61086;BME280;46967;48.876;2.136;2024-01-06T08:11:06;101025.56;;;32.03;15.28
61086;BME280;46967;48.876;2.136;2024-01-06T08:13:31;101030.28;;;31.23;16.32
61086;BME280;46967;48.876;2.136;2024-01-06T08:15:57;101033.09;;;31.84;15.28
61086;BME280;46967;48.876;2.136;2024-01-06T08:18:22;101039.13;;;31.63;15.79
61086;BME280;46967;48.876;2.136;2024-01-06T08:20:48;101046.16;;;31.33;15.75
61086;BME280;46967;48.876;2.136;2024-01-06T08:23:13;101045.06;;;30.71;16.28
61086;BME280;46967;48.876;2.136;2024-01-06T08:25:39;101041.88;;;31.47;15.79
61086;BME280;46967;48.876;2.136;2024-01-06T08:28:04;101048.63;;;31.89;15.54
61086;BME280;46967;48.876;2.136;2024-01-06T08:30:30;101051.03;;;31.84;15.44
61086;BME280;46967;48.876;2.136;2024-01-06T08:32:55;101055.91;;;32.03;15.12
61086;BME280;46967;48.876;2.136;2024-01-06T08:35:20;101066.31;;;32.21;15.04
61086;BME280;46967;48.876;2.136;2024-01-06T08:37:46;101060.28;;;31.81;15.38
61086;BME280;46967;48.876;2.136;2024-01-06T08:40:12;101060.41;;;32.11;14.93
61086;BME280;46967;48.876;2.136;2024-01-06T08:42:37;101064.25;;;31.31;15.55
61086;BME280;46967;48.876;2.136;2024-01-06T08:45:04;101064.75;;;32.12;15.01
61086;BME280;46967;48.876;2.136;2024-01-06T08:47:30;101077.66;;;30.99;15.93
61086;BME280;46967;48.876;2.136;2024-01-06T08:49:55;101073.78;;;31.88;15.26
61086;BME280;46967;48.876;2.136;2024-01-06T08:52:21;101081.41;;;31.99;14.94
61086;BME280;46967;48.876;2.136;2024-01-06T08:54:46;101086.03;;;31.90;15.39
61086;BME280;46967;48.876;2.136;2024-01-06T08:57:11;101086.88;;;32.14;14.98
61086;BME280;46967;48.876;2.136;2024-01-06T08:59:36;101079.44;;;32.39;14.76
61086;BME280;46967;48.876;2.136;2024-01-06T09:02:03;101085.56;;;32.10;15.29
61086;BME280;46967;48.876;2.136;2024-01-06T09:04:28;101091.28;;;32.45;14.82
61086;BME280;46967;48.876;2.136;2024-01-06T09:06:53;101099.13;;;32.70;14.71
61086;BME280;46967;48.876;2.136;2024-01-06T09:09:18;101098.00;;;32.64;14.56
61086;BME280;46967;48.876;2.136;2024-01-06T09:11:44;101102.16;;;32.81;14.50
61086;BME280;46967;48.876;2.136;2024-01-06T09:14:09;101107.81;;;32.33;14.64
61086;BME280;46967;48.876;2.136;2024-01-06T09:16:36;101113.38;;;30.01;16.13
61086;BME280;46967;48.876;2.136;2024-01-06T09:19:02;101107.69;;;31.18;15.54
61086;BME280;46967;48.876;2.136;2024-01-06T09:21:27;101113.69;;;31.68;15.27
61086;BME280;46967;48.876;2.136;2024-01-06T09:23:52;101116.63;;;31.02;15.48
61086;BME280;46967;48.876;2.136;2024-01-06T09:26:18;101126.34;;;31.03;15.32
61086;BME280;46967;48.876;2.136;2024-01-06T09:28:43;101128.88;;;31.04;15.66
61086;BME280;46967;48.876;2.136;2024-01-06T09:31:08;101127.66;;;31.15;15.78
61086;BME280;46967;48.876;2.136;2024-01-06T09:33:33;101124.75;;;31.25;15.30
61086;BME280;46967;48.876;2.136;2024-01-06T09:35:59;101131.34;;;29.23;16.72
61086;BME280;46967;48.876;2.136;2024-01-06T09:38:25;101129.53;;;30.90;15.85
61086;BME280;46967;48.876;2.136;2024-01-06T09:40:51;101140.28;;;30.74;16.12
61086;BME280;46967;48.876;2.136;2024-01-06T09:43:16;101131.06;;;31.40;15.28
61086;BME280;46967;48.876;2.136;2024-01-06T09:45:42;101141.28;;;31.76;15.14
61086;BME280;46967;48.876;2.136;2024-01-06T09:48:11;101149.75;;;31.88;15.05
61086;BME280;46967;48.876;2.136;2024-01-06T09:50:41;101139.75;;;32.28;14.75
61086;BME280;46967;48.876;2.136;2024-01-06T09:53:11;101139.56;;;32.53;14.39
61086;BME280;46967;48.876;2.136;2024-01-06T09:55:37;101147.28;;;31.47;15.57
61086;BME280;46967;48.876;2.136;2024-01-06T09:58:04;101147.19;;;31.24;15.80
61086;BME280;46967;48.876;2.136;2024-01-06T10:00:31;101150.78;;;31.08;15.89
61086;BME280;46967;48.876;2.136;2024-01-06T10:02:57;101149.72;;;31.65;15.40
61086;BME280;46967;48.876;2.136;2024-01-06T10:05:23;101158.63;;;31.89;15.41
61086;BME280;46967;48.876;2.136;2024-01-06T10:07:48;101150.84;;;31.39;15.47
61086;BME280;46967;48.876;2.136;2024-01-06T10:10:14;101154.47;;;31.07;15.76
61086;BME280;46967;48.876;2.136;2024-01-06T10:12:41;101152.94;;;31.13;15.61
61086;BME280;46967;48.876;2.136;2024-01-06T10:15:08;101152.25;;;31.19;15.90
61086;BME280;46967;48.876;2.136;2024-01-06T10:17:41;101160.41;;;30.45;16.25
61086;BME280;46967;48.876;2.136;2024-01-06T10:20:08;101156.78;;;31.18;15.80
61086;BME280;46967;48.876;2.136;2024-01-06T10:22:35;101155.03;;;30.69;16.11
61086;BME280;46967;48.876;2.136;2024-01-06T10:25:01;101157.53;;;30.71;15.80
61086;BME280;46967;48.876;2.136;2024-01-06T10:27:26;101151.34;;;31.35;15.45
61086;BME280;46967;48.876;2.136;2024-01-06T10:29:52;101152.31;;;31.42;15.39
61086;BME280;46967;48.876;2.136;2024-01-06T10:32:17;101166.91;;;31.39;15.67
61086;BME280;46967;48.876;2.136;2024-01-06T10:34:43;101162.03;;;30.29;16.30
61086;BME280;46967;48.876;2.136;2024-01-06T10:37:09;101165.75;;;31.34;15.68
61086;BME280;46967;48.876;2.136;2024-01-06T10:39:35;101164.03;;;30.03;16.57
61086;BME280;46967;48.876;2.136;2024-01-06T10:42:03;101159.19;;;31.45;15.59
61086;BME280;46967;48.876;2.136;2024-01-06T10:44:29;101162.38;;;30.84;16.01
61086;BME280;46967;48.876;2.136;2024-01-06T10:46:57;101161.94;;;29.29;17.67
61086;BME280;46967;48.876;2.136;2024-01-06T10:49:23;101167.38;;;31.03;16.09
61086;BME280;46967;48.876;2.136;2024-01-06T10:51:51;101161.28;;;31.66;15.52
61086;BME280;46967;48.876;2.136;2024-01-06T10:54:17;101161.69;;;31.46;15.95
61086;BME280;46967;48.876;2.136;2024-01-06T10:56:45;101159.69;;;32.34;15.09
61086;BME280;46967;48.876;2.136;2024-01-06T10:59:11;101164.41;;;32.01;15.53
61086;BME280;46967;48.876;2.136;2024-01-06T11:01:38;101160.75;;;31.31;15.97
61086;BME280;46967;48.876;2.136;2024-01-06T11:04:04;101157.00;;;32.11;15.05
61086;BME280;46967;48.876;2.136;2024-01-06T11:06:30;101152.56;;;32.18;15.43
61086;BME280;46967;48.876;2.136;2024-01-06T11:09:01;101152.03;;;32.61;14.81
61086;BME280;46967;48.876;2.136;2024-01-06T11:11:29;101157.38;;;32.84;14.70
61086;BME280;46967;48.876;2.136;2024-01-06T11:14:22;101158.13;;;32.17;15.13
61086;BME280;46967;48.876;2.136;2024-01-06T11:16:48;101160.41;;;31.34;15.75
61086;BME280;46967;48.876;2.136;2024-01-06T11:22:22;101162.81;;;31.20;15.61
61086;BME280;46967;48.876;2.136;2024-01-06T11:24:49;101155.03;;;31.73;15.17
61086;BME280;46967;48.876;2.136;2024-01-06T11:27:22;101157.56;;;31.98;15.09
61086;BME280;46967;48.876;2.136;2024-01-06T11:29:51;101157.00;;;30.92;15.71
61086;BME280;46967;48.876;2.136;2024-01-06T11:34:49;101158.44;;;32.22;14.70
61086;BME280;46967;48.876;2.136;2024-01-06T11:37:17;101164.06;;;27.55;18.50
61086;BME280;46967;48.876;2.136;2024-01-06T11:39:44;101153.56;;;29.24;16.97
61086;BME280;46967;48.876;2.136;2024-01-06T11:42:10;101154.41;;;31.23;15.55
61086;BME280;46967;48.876;2.136;2024-01-06T11:44:39;101147.44;;;30.89;15.97
61086;BME280;46967;48.876;2.136;2024-01-06T11:47:08;101152.13;;;28.23;17.47
61086;BME280;46967;48.876;2.136;2024-01-06T11:49:34;101141.47;;;28.41;17.43
61086;BME280;46967;48.876;2.136;2024-01-06T11:52:00;101140.72;;;28.13;17.36
61086;BME280;46967;48.876;2.136;2024-01-06T11:54:25;101137.13;;;30.12;15.70
61086;BME280;46967;48.876;2.136;2024-01-06T11:56:50;101137.06;;;29.79;16.38
61086;BME280;46967;48.876;2.136;2024-01-06T11:59:19;101140.13;;;29.16;16.76
61086;BME280;46967;48.876;2.136;2024-01-06T12:01:45;101139.31;;;27.91;17.83
61086;BME280;46967;48.876;2.136;2024-01-06T12:04:13;101138.28;;;28.01;17.71
61086;BME280;46967;48.876;2.136;2024-01-06T12:06:39;101130.63;;;29.56;16.82
61086;BME280;46967;48.876;2.136;2024-01-06T12:09:08;101132.63;;;29.54;16.71
61086;BME280;46967;48.876;2.136;2024-01-06T12:11:34;101134.81;;;29.50;16.36
61086;BME280;46967;48.876;2.136;2024-01-06T12:13:59;101128.28;;;28.84;17.15
61086;BME280;46967;48.876;2.136;2024-01-06T12:16:25;101126.34;;;29.02;16.70
61086;BME280;46967;48.876;2.136;2024-01-06T12:18:53;101121.41;;;29.07;16.85
61086;BME280;46967;48.876;2.136;2024-01-06T12:21:24;101117.47;;;29.20;16.62
61086;BME280;46967;48.876;2.136;2024-01-06T12:23:49;101110.78;;;29.75;16.47
61086;BME280;46967;48.876;2.136;2024-01-06T12:26:18;101123.56;;;29.38;16.31
61086;BME280;46967;48.876;2.136;2024-01-06T12:28:45;101136.91;;;27.70;17.94
61086;BME280;46967;48.876;2.136;2024-01-06T12:31:11;101124.81;;;28.65;17.31
61086;BME280;46967;48.876;2.136;2024-01-06T12:33:38;101124.28;;;29.49;16.28
61086;BME280;46967;48.876;2.136;2024-01-06T12:36:04;101126.84;;;27.63;18.27
61086;BME280;46967;48.876;2.136;2024-01-06T12:38:30;101129.44;;;28.19;17.55
61086;BME280;46967;48.876;2.136;2024-01-06T12:40:56;101126.72;;;28.55;17.51
61086;BME280;46967;48.876;2.136;2024-01-06T12:43:21;101127.16;;;28.68;17.51
61086;BME280;46967;48.876;2.136;2024-01-06T12:45:47;101127.91;;;29.98;16.10
61086;BME280;46967;48.876;2.136;2024-01-06T12:48:12;101124.03;;;31.39;14.74